Time;durP1;ratioP1;P1;durP2;ratioP2;P2;SDS_P1;SDS_P2;PMS_P1;PMS_P2;Temp;Humidity;BMP_temperature;BMP_pressure;BME280_temperature;BME280_humidity;BME280_pressure;Samples;Min_cycle;Max_cycle;Signal;HPM_P1;HPM_P2
2023/07/13 00:00:11;;;;;;;8.98;3.05;;;;;;;19.22;62.55;101313.38;5091107;28;20043;-50
2023/07/13 00:02:37;;;;;;;6.93;3.03;;;;;;;19.25;62.91;101304.69;5083061;28;20433;-50
2023/07/13 00:05:04;;;;;;;6.95;3.42;;;;;;;18.88;63.02;101304.50;5070902;28;20040;-46
2023/07/13 00:07:31;;;;;;;13.63;4.10;;;;;;;19.18;62.99;101314.94;5071366;28;20034;-48
2023/07/13 00:09:58;;;;;;;10.13;3.72;;;;;;;19.14;62.54;101307.53;5071186;28;20111;-46
2023/07/13 00:12:33;;;;;;;8.05;3.33;;;;;;;19.32;63.26;101312.69;5078254;28;20354;-48
2023/07/13 00:15:02;;;;;;;11.02;4.30;;;;;;;19.23;63.16;101301.44;5081798;28;20028;-49
2023/07/13 00:17:29;;;;;;;9.90;3.92;;;;;;;19.31;63.32;101296.63;5081176;28;20034;-49
2023/07/13 00:19:56;;;;;;;12.50;4.63;;;;;;;18.98;63.70;101311.94;5094971;28;20031;-46
2023/07/13 00:22:25;;;;;;;11.23;4.40;;;;;;;18.74;65.62;101308.63;5081123;28;20025;-45
2023/07/13 00:24:58;;;;;;;12.00;4.63;;;;;;;18.61;66.26;101317.91;5087579;28;20045;-49
2023/07/13 00:27:26;;;;;;;9.88;4.50;;;;;;;18.55;65.63;101321.59;5076937;28;20097;-49
2023/07/13 00:29:52;;;;;;;9.68;4.55;;;;;;;18.20;67.49;101319.94;5082280;28;20034;-50
2023/07/13 00:32:19;;;;;;;12.68;4.85;;;;;;;18.02;67.65;101328.28;5090668;28;20020;-48
2023/07/13 00:34:45;;;;;;;10.93;3.97;;;;;;;17.97;67.87;101322.78;5094360;28;20024;-52
2023/07/13 00:37:12;;;;;;;14.65;5.22;;;;;;;17.99;67.89;101325.22;5094500;28;20071;-53
2023/07/13 00:39:39;;;;;;;11.27;4.28;;;;;;;18.10;68.14;101335.19;5087967;28;20089;-49
2023/07/13 00:42:05;;;;;;;13.07;4.32;;;;;;;17.83;68.26;101321.44;5080261;28;20047;-51
2023/07/13 00:44:32;;;;;;;9.85;4.10;;;;;;;17.75;69.21;101332.66;5094274;28;20035;-48
2023/07/13 00:46:58;;;;;;;15.38;5.03;;;;;;;17.54;69.40;101332.22;5094481;28;20023;-51
2023/07/13 00:49:27;;;;;;;10.85;4.35;;;;;;;17.88;69.45;101330.47;5094379;28;20024;-53
2023/07/13 00:52:06;;;;;;;15.13;4.20;;;;;;;17.65;68.92;101323.22;5094602;28;20390;-52
2023/07/13 00:54:39;;;;;;;18.48;4.70;;;;;;;17.54;69.20;101317.84;5094328;28;20024;-51
2023/07/13 00:57:11;;;;;;;19.10;5.15;;;;;;;17.46;69.40;101329.91;5076301;28;20028;-52
2023/07/13 00:59:42;;;;;;;11.57;4.70;;;;;;;16.96;71.40;101321.53;5094290;28;20436;-51
2023/07/13 01:02:09;;;;;;;11.30;4.60;;;;;;;17.02;70.40;101328.69;5075065;28;20021;-51
2023/07/13 01:04:35;;;;;;;13.57;3.60;;;;;;;17.06;70.59;101313.63;5073491;28;20045;-51
2023/07/13 01:07:01;;;;;;;14.48;4.15;;;;;;;17.06;70.85;101313.63;5075986;28;20432;-52
2023/07/13 01:09:28;;;;;;;12.40;3.85;;;;;;;17.03;71.12;101308.69;5094097;28;20020;-53
2023/07/13 01:11:54;;;;;;;16.23;4.10;;;;;;;17.07;71.38;101310.69;5094521;28;20028;-53
2023/07/13 01:14:20;;;;;;;14.07;4.40;;;;;;;16.96;72.58;101311.53;5093044;28;20355;-52
2023/07/13 01:16:48;;;;;;;11.70;4.65;;;;;;;17.12;71.35;101309.97;5073342;28;20553;-52
2023/07/13 01:19:36;;;;;;;11.27;4.47;;;;;;;16.96;71.37;101305.28;5088720;28;20059;-51
2023/07/13 01:22:11;;;;;;;10.77;3.78;;;;;;;16.94;71.34;101305.53;5088751;22;20049;-52
2023/07/13 01:24:39;;;;;;;16.10;4.15;;;;;;;16.66;72.34;101297.28;5053955;28;20057;-52
2023/07/13 01:27:08;;;;;;;13.93;4.53;;;;;;;16.64;72.41;101305.63;5084639;28;20143;-52
2023/07/13 01:29:41;;;;;;;11.63;4.50;;;;;;;16.44;73.75;101300.56;5085025;28;20082;-50
2023/07/13 01:32:15;;;;;;;10.10;4.55;;;;;;;16.31;73.87;101303.47;5081968;28;20117;-52
2023/07/13 01:34:42;;;;;;;17.42;4.70;;;;;;;16.38;74.21;101304.22;5093165;28;20024;-52
2023/07/13 01:37:09;;;;;;;8.52;4.38;;;;;;;16.53;73.46;101303.75;5092976;28;20039;-52
2023/07/13 01:39:37;;;;;;;9.98;4.55;;;;;;;16.62;73.30;101297.75;5093109;28;20020;-51
2023/07/13 01:42:03;;;;;;;10.25;4.60;;;;;;;16.73;72.52;101301.56;5086278;28;20028;-57
2023/07/13 01:44:29;;;;;;;9.90;4.40;;;;;;;16.81;71.95;101298.47;5103622;28;20406;-56
2023/07/13 01:46:56;;;;;;;14.25;4.65;;;;;;;16.42;73.50;101296.44;5105388;28;20389;-56
2023/07/13 01:49:22;;;;;;;13.50;4.72;;;;;;;16.43;73.69;101301.59;5092567;28;20476;-57
2023/07/13 01:51:48;;;;;;;16.00;4.88;;;;;;;16.53;73.44;101303.75;5092116;28;20539;-54
2023/07/13 01:54:15;;;;;;;9.23;4.70;;;;;;;16.36;73.29;101300.91;5092176;28;20032;-56
2023/07/13 01:56:41;;;;;;;13.10;4.57;;;;;;;16.53;73.14;101288.34;5090953;28;20454;-55
2023/07/13 01:59:09;;;;;;;10.35;4.70;;;;;;;16.19;74.45;101302.63;5092018;28;20360;-56
2023/07/13 02:01:35;;;;;;;11.20;4.63;;;;;;;16.26;73.79;101303.34;5092341;28;20023;-56
2023/07/13 02:04:03;;;;;;;14.10;4.85;;;;;;;16.36;73.55;101311.72;5092804;28;20023;-57
2023/07/13 02:06:29;;;;;;;14.55;4.82;;;;;;;16.30;72.62;101309.94;5092360;28;20021;-51
2023/07/13 02:08:55;;;;;;;9.95;4.63;;;;;;;16.39;73.19;101305.03;5092077;28;20042;-55
2023/07/13 02:11:22;;;;;;;12.32;4.03;;;;;;;16.66;72.27;101308.06;5092467;28;20427;-51
2023/07/13 02:13:48;;;;;;;8.07;3.95;;;;;;;16.64;72.06;101311.03;5092348;28;20050;-53
2023/07/13 02:16:15;;;;;;;9.20;4.05;;;;;;;16.96;70.43;101308.81;5091079;28;20087;-55
2023/07/13 02:18:41;;;;;;;9.27;4.20;;;;;;;16.95;70.34;101307.19;5090490;28;20056;-53
2023/07/13 02:21:07;;;;;;;12.82;5.18;;;;;;;17.27;69.47;101309.50;5091658;28;20110;-51
2023/07/13 02:23:33;;;;;;;10.70;3.80;;;;;;;17.05;69.83;101307.41;5091814;28;20072;-48
2023/07/13 02:26:03;;;;;;;11.70;4.70;;;;;;;17.06;69.21;101309.03;5091972;28;20027;-49
2023/07/13 02:28:30;;;;;;;15.35;5.32;;;;;;;17.19;69.54;101307.13;5092489;28;20028;-53
2023/07/13 02:31:05;;;;;;;13.52;4.93;;;;;;;17.03;69.40;101304.09;5073067;28;20028;-53
2023/07/13 02:33:31;;;;;;;;;;;;;;;17.06;69.53;101309.03;5086417;28;20032;-57
2023/07/13 02:35:57;;;;;;;7.30;3.80;;;;;;;17.04;69.62;101305.72;5070976;28;19913;-55
2023/07/13 02:38:24;;;;;;;10.23;4.47;;;;;;;16.75;70.46;101307.53;5071339;28;20028;-56
2023/07/13 02:40:50;;;;;;;11.13;4.38;;;;;;;16.73;70.77;101298.03;5075983;28;20028;-55
2023/07/13 02:43:16;;;;;;;9.43;4.28;;;;;;;16.46;71.68;101292.22;5091379;28;20036;-56
2023/07/13 02:45:46;;;;;;;9.27;4.13;;;;;;;16.11;73.69;101298.41;5091560;28;20024;-54
2023/07/13 02:48:14;;;;;;;12.35;4.68;;;;;;;16.22;73.59;101300.31;5091349;28;20111;-58
2023/07/13 02:50:41;;;;;;;8.50;4.20;;;;;;;16.11;74.09;101303.81;5090753;28;20482;-56
2023/07/13 02:53:07;;;;;;;8.95;4.22;;;;;;;16.02;74.30;101297.91;5074781;28;20059;-48
2023/07/13 02:55:33;;;;;;;11.90;4.63;;;;;;;15.88;74.88;101301.00;5071395;28;20478;-50
2023/07/13 02:57:59;;;;;;;11.10;4.72;;;;;;;15.83;75.23;101309.81;5071261;28;20127;-52
2023/07/13 03:00:25;;;;;;;9.80;4.55;;;;;;;15.92;75.06;101296.81;5071323;28;20046;-50
2023/07/13 03:02:52;;;;;;;9.07;4.50;;;;;;;15.26;77.86;101295.78;5085418;28;20031;-52
2023/07/13 03:05:19;;;;;;;10.85;4.13;;;;;;;15.25;78.12;101297.66;5090753;28;20355;-52
2023/07/13 03:07:45;;;;;;;16.90;4.70;;;;;;;15.08;79.41;101303.88;5091129;28;20050;-49
2023/07/13 03:10:11;;;;;;;12.88;4.95;;;;;;;14.95;79.95;101307.56;5091691;28;20020;-51
2023/07/13 03:12:38;;;;;;;10.45;4.88;;;;;;;14.65;82.05;101307.41;5091335;28;20382;-50
2023/07/13 03:15:04;;;;;;;13.00;5.07;;;;;;;14.31;83.79;101311.41;5099831;28;20101;-51
2023/07/13 03:17:31;;;;;;;11.93;4.85;;;;;;;14.23;84.66;101317.91;5112019;28;20080;-51
2023/07/13 03:19:58;;;;;;;13.45;4.43;;;;;;;14.15;85.14;101312.75;5112421;28;20477;-50
2023/07/13 03:22:24;;;;;;;10.27;4.35;;;;;;;14.06;85.69;101319.47;5112009;28;20067;-51
2023/07/13 03:24:50;;;;;;;10.13;4.55;;;;;;;14.06;85.88;101322.16;5112035;28;20051;-52
2023/07/13 03:27:18;;;;;;;8.73;4.40;;;;;;;14.02;86.61;101329.03;5103356;28;20171;-51
2023/07/13 03:29:44;;;;;;;18.13;5.22;;;;;;;13.99;87.10;101320.34;5083516;28;20374;-48
2023/07/13 03:32:11;;;;;;;15.40;4.65;;;;;;;13.89;87.63;101325.38;5091711;28;20031;-48
2023/07/13 03:34:37;;;;;;;16.75;4.63;;;;;;;13.83;88.13;101326.25;5091218;28;20027;-48
2023/07/13 03:37:04;;;;;;;10.80;4.80;;;;;;;13.80;88.23;101333.91;5086711;28;20040;-50
2023/07/13 03:39:30;;;;;;;10.23;4.18;;;;;;;13.76;88.73;101325.44;5090001;28;20024;-50
2023/07/13 03:41:56;;;;;;;10.43;4.65;;;;;;;13.67;88.76;101326.72;5091395;28;20070;-51
2023/07/13 03:44:22;;;;;;;12.95;5.18;;;;;;;13.61;89.60;101332.97;5091441;28;20403;-50
2023/07/13 03:46:48;;;;;;;12.45;4.68;;;;;;;13.42;90.66;101329.31;5091645;28;20401;-51
2023/07/13 03:49:15;;;;;;;12.45;5.00;;;;;;;13.39;91.52;101325.19;5091713;28;20518;-50
2023/07/13 03:51:41;;;;;;;13.02;5.10;;;;;;;13.42;91.58;101324.75;5093909;28;20115;-51
2023/07/13 03:54:07;;;;;;;12.10;5.38;;;;;;;13.40;91.65;101342.16;5095196;28;20055;-51
2023/07/13 03:56:34;;;;;;;9.07;4.80;;;;;;;13.37;91.54;101345.25;5095545;28;20024;-50
2023/07/13 03:59:00;;;;;;;7.20;4.15;;;;;;;13.30;91.79;101339.91;5095267;28;20111;-50
2023/07/13 04:01:26;;;;;;;8.38;4.18;;;;;;;13.35;92.46;101348.16;5094062;28;20103;-51
2023/07/13 04:03:53;;;;;;;9.68;4.43;;;;;;;13.17;93.43;101323.78;5095357;28;20028;-51
2023/07/13 04:06:26;;;;;;;10.68;4.32;;;;;;;13.27;92.60;101334.97;5094557;28;20039;-52
2023/07/13 04:08:55;;;;;;;10.02;4.43;;;;;;;13.32;92.06;101353.94;5095120;28;20019;-51
2023/07/13 04:11:24;;;;;;;10.23;4.45;;;;;;;13.28;92.45;101347.38;5082506;28;20025;-51
2023/07/13 04:13:51;;;;;;;8.00;4.07;;;;;;;13.22;92.89;101350.91;5074234;28;20055;-49
2023/07/13 04:16:18;;;;;;;8.13;4.03;;;;;;;13.29;92.56;101346.31;5088018;28;20107;-50
2023/07/13 04:18:46;;;;;;;7.75;3.60;;;;;;;13.19;93.16;101345.91;5076018;28;20032;-50
2023/07/13 04:21:14;;;;;;;11.07;4.30;;;;;;;13.23;92.87;101351.72;5094139;28;20159;-49
2023/07/13 04:23:41;;;;;;;12.02;4.65;;;;;;;13.23;92.95;101349.84;5094201;28;20073;-52
2023/07/13 04:26:08;;;;;;;8.30;3.85;;;;;;;13.15;93.44;101350.03;5094014;28;20040;-50
2023/07/13 04:28:34;;;;;;;7.70;3.92;;;;;;;13.15;93.60;101363.47;5084473;28;20033;-51
2023/07/13 04:31:01;;;;;;;10.15;4.55;;;;;;;13.15;93.56;101358.09;5073941;28;20024;-54
2023/07/13 04:33:27;;;;;;;9.05;4.10;;;;;;;13.18;93.35;101366.56;5073667;28;20028;-48
2023/07/13 04:35:56;;;;;;;10.63;3.85;;;;;;;13.18;93.75;101365.75;5073677;28;20025;-51
2023/07/13 04:38:29;;;;;;;8.15;4.32;;;;;;;13.14;94.06;101369.91;5073703;28;20063;-49
2023/07/13 04:41:01;;;;;;;7.88;3.97;;;;;;;13.19;94.21;101367.41;5073936;28;20123;-50
2023/07/13 04:43:28;;;;;;;9.98;4.63;;;;;;;13.10;94.61;101379.41;5073364;28;20025;-51
2023/07/13 04:45:54;;;;;;;9.68;4.57;;;;;;;13.11;94.02;101387.28;5073337;28;20049;-48
2023/07/13 04:48:21;;;;;;;8.27;3.90;;;;;;;13.23;93.96;101390.19;5073666;28;20037;-52
2023/07/13 04:50:48;;;;;;;10.50;3.92;;;;;;;13.29;93.71;101389.34;5073769;28;20035;-51
2023/07/13 04:53:14;;;;;;;11.27;4.25;;;;;;;13.33;93.42;101398.63;5073445;28;20021;-49
2023/07/13 04:55:40;;;;;;;9.32;4.53;;;;;;;13.35;93.03;101393.88;5073367;28;20039;-50
2023/07/13 04:58:07;;;;;;;16.02;4.80;;;;;;;13.23;93.72;101394.72;5055232;28;20038;-52
2023/07/13 05:00:33;;;;;;;7.78;4.22;;;;;;;13.25;93.71;101387.28;5073425;28;20482;-51
2023/07/13 05:03:00;;;;;;;11.15;4.80;;;;;;;13.21;93.61;101389.53;5072653;28;20020;-50
2023/07/13 05:05:27;;;;;;;12.27;4.55;;;;;;;13.24;93.77;101401.75;5072801;28;20029;-51
2023/07/13 05:07:54;;;;;;;10.57;4.50;;;;;;;13.17;93.98;101401.75;5055219;28;20505;-51
2023/07/13 05:10:20;;;;;;;9.38;4.65;;;;;;;13.15;94.21;101399.25;5087440;28;20024;-48
2023/07/13 05:12:46;;;;;;;9.30;4.60;;;;;;;13.25;93.59;101409.59;5093405;28;20020;-50
2023/07/13 05:15:13;;;;;;;15.02;4.82;;;;;;;13.28;93.35;101419.94;5092851;28;20024;-53
2023/07/13 05:17:40;;;;;;;12.88;4.40;;;;;;;13.30;93.39;101406.28;5093138;28;20020;-50
2023/07/13 05:20:11;;;;;;;14.75;4.70;;;;;;;13.30;93.80;101401.75;5093231;28;20016;-52
2023/07/13 05:22:37;;;;;;;13.13;4.53;;;;;;;13.39;93.73;101418.47;5093133;28;20502;-48
2023/07/13 05:25:06;;;;;;;13.80;4.60;;;;;;;13.37;93.73;101417.84;5092820;28;20042;-52
2023/07/13 05:27:32;;;;;;;8.82;4.15;;;;;;;13.33;93.88;101420.16;5092962;28;20486;-51
2023/07/13 05:29:59;;;;;;;13.50;4.60;;;;;;;13.31;94.34;101419.50;5093247;28;20020;-52
2023/07/13 05:32:25;;;;;;;10.90;4.32;;;;;;;13.33;94.52;101417.47;5092686;28;20126;-50
2023/07/13 05:34:51;;;;;;;8.70;4.28;;;;;;;13.33;94.08;101428.22;5092772;28;20101;-50
2023/07/13 05:37:18;;;;;;;11.43;5.10;;;;;;;13.42;93.63;101429.63;5092594;28;20084;-50
2023/07/13 05:39:44;;;;;;;10.50;4.80;;;;;;;13.45;93.01;101426.53;5109466;28;20031;-52
2023/07/13 05:42:10;;;;;;;10.07;4.43;;;;;;;13.39;93.34;101423.88;5095569;28;20032;-52
2023/07/13 05:44:36;;;;;;;9.82;3.83;;;;;;;13.48;92.88;101426.09;5092635;28;20127;-48
2023/07/13 05:47:03;;;;;;;15.18;4.75;;;;;;;13.31;93.76;101418.69;5076466;23;20045;-50
2023/07/13 05:49:30;;;;;;;14.10;4.68;;;;;;;13.46;93.17;101424.66;5072588;28;20474;-50
2023/07/13 05:51:56;;;;;;;10.45;4.43;;;;;;;13.46;92.83;101428.19;5072707;28;20056;-51
2023/07/13 05:54:23;;;;;;;8.18;4.07;;;;;;;13.48;92.75;101430.66;5072522;28;20533;-49
2023/07/13 05:56:49;;;;;;;8.90;3.95;;;;;;;13.52;92.40;101433.75;5072611;28;20115;-52
2023/07/13 05:59:15;;;;;;;10.05;3.72;;;;;;;13.56;92.32;101435.00;5072347;28;20060;-51
2023/07/13 06:01:42;;;;;;;11.57;4.28;;;;;;;13.53;92.10;101430.84;5059960;28;20406;-50
2023/07/13 06:04:08;;;;;;;12.55;3.55;;;;;;;13.59;92.15;101429.16;5048747;28;20521;-52
2023/07/13 06:06:34;;;;;;;11.48;3.70;;;;;;;13.58;92.08;101427.53;5032154;28;20095;-52
2023/07/13 06:09:00;;;;;;;7.93;3.65;;;;;;;13.56;92.25;101421.53;5032313;28;20756;-49
2023/07/13 06:11:29;;;;;;;11.25;4.00;;;;;;;13.57;91.98;101425.88;5032430;28;20025;-48
2023/07/13 06:13:56;;;;;;;16.27;4.15;;;;;;;13.47;93.12;101431.69;5031190;28;20026;-48
2023/07/13 06:16:23;;;;;;;10.32;4.00;;;;;;;13.49;93.03;101421.53;5051245;28;20029;-51
2023/07/13 06:18:51;;;;;;;7.90;3.53;;;;;;;13.52;93.06;101423.81;5050744;28;20052;-51
2023/07/13 06:21:20;;;;;;;10.10;4.57;;;;;;;13.60;92.47;101423.59;5051965;28;20072;-51
2023/07/13 06:23:48;;;;;;;11.48;4.10;;;;;;;13.64;92.19;101413.22;5052179;28;20029;-51
2023/07/13 06:26:15;;;;;;;9.38;4.10;;;;;;;13.57;92.08;101421.31;5051665;28;20029;-51
2023/07/13 06:28:41;;;;;;;10.10;3.60;;;;;;;13.60;91.86;101420.06;5051935;28;20099;-52
2023/07/13 06:31:09;;;;;;;10.52;3.95;;;;;;;13.65;91.94;101425.63;5051938;28;20103;-49
2023/07/13 06:33:35;;;;;;;12.40;3.92;;;;;;;13.60;92.12;101422.75;5051986;28;20033;-51
2023/07/13 06:36:03;;;;;;;9.15;3.80;;;;;;;13.61;92.11;101419.03;5051610;28;20032;-51
2023/07/13 06:38:29;;;;;;;11.20;4.15;;;;;;;13.64;91.80;101418.59;5051703;28;20075;-51
2023/07/13 06:40:56;;;;;;;9.70;4.30;;;;;;;13.69;91.58;101416.09;5051408;28;20108;-52
2023/07/13 06:43:24;;;;;;;12.00;3.58;;;;;;;13.69;91.50;101422.31;5051624;28;20033;-49
2023/07/13 06:45:51;;;;;;;13.80;4.75;;;;;;;13.58;91.73;101417.59;5051313;28;20514;-52
2023/07/13 06:48:19;;;;;;;10.50;3.92;;;;;;;13.62;91.46;101426.91;5051747;28;20063;-51
2023/07/13 06:50:46;;;;;;;11.18;3.72;;;;;;;13.54;91.98;101416.34;5050977;28;20036;-52
2023/07/13 06:53:13;;;;;;;13.32;4.53;;;;;;;13.55;92.35;101422.56;5051005;28;20514;-52
2023/07/13 06:55:40;;;;;;;8.18;3.90;;;;;;;13.48;93.16;101419.88;5051266;28;20025;-49
2023/07/13 06:58:07;;;;;;;9.70;4.03;;;;;;;13.44;93.06;101419.50;5051489;28;20021;-51
2023/07/13 07:00:33;;;;;;;17.65;4.90;;;;;;;13.43;93.19;101414.31;5051272;28;20472;-49
2023/07/13 07:02:59;;;;;;;12.55;4.00;;;;;;;13.49;92.91;101413.47;5051567;28;20036;-49
2023/07/13 07:05:25;;;;;;;11.80;4.18;;;;;;;13.46;93.31;101405.84;5039172;28;20118;-52
2023/07/13 07:07:54;;;;;;;13.90;4.28;;;;;;;13.48;93.45;101403.75;5031755;28;20491;-50
2023/07/13 07:10:20;;;;;;;13.27;4.22;;;;;;;13.43;93.90;101401.69;5034651;28;20017;-51
2023/07/13 07:12:47;;;;;;;17.70;4.95;;;;;;;13.45;93.63;101401.50;5051580;28;20112;-52
2023/07/13 07:15:13;;;;;;;10.40;3.85;;;;;;;13.47;93.52;101410.19;5050749;28;20108;-48
2023/07/13 07:17:39;;;;;;;14.38;3.78;;;;;;;13.27;94.14;101402.19;5051235;28;20044;-52
2023/07/13 07:20:06;;;;;;;11.60;4.30;;;;;;;13.17;94.70;101401.75;5050900;28;20025;-50
2023/07/13 07:22:33;;;;;;;12.38;4.07;;;;;;;13.26;94.30;101405.03;5051132;28;20029;-48
2023/07/13 07:25:00;;;;;;;13.20;4.03;;;;;;;13.16;94.89;101400.09;5052295;28;20025;-52
2023/07/13 07:27:27;;;;;;;13.07;3.55;;;;;;;13.18;94.77;101403.38;5055423;28;20021;-51
2023/07/13 07:29:53;;;;;;;10.43;3.85;;;;;;;13.19;94.46;101400.47;5055266;28;20021;-51
2023/07/13 07:32:20;;;;;;;15.98;4.65;;;;;;;13.24;94.06;101399.88;5055254;28;20029;-52
2023/07/13 07:34:47;;;;;;;15.82;3.83;;;;;;;13.23;94.12;101400.09;5054562;28;20483;-50
2023/07/13 07:37:14;;;;;;;20.20;4.32;;;;;;;13.23;94.21;101392.03;5055348;28;20146;-50
2023/07/13 07:39:40;;;;;;;8.25;3.65;;;;;;;13.24;94.54;101391.81;5055028;28;20479;-52
2023/07/13 07:42:07;;;;;;;12.05;4.22;;;;;;;13.23;94.59;101389.34;5055126;28;20032;-50
2023/07/13 07:44:34;;;;;;;12.18;4.88;;;;;;;13.27;94.37;101394.09;5054463;28;20032;-52
2023/07/13 07:47:00;;;;;;;11.18;3.92;;;;;;;13.17;95.33;101389.13;5054779;28;20041;-50
2023/07/13 07:49:26;;;;;;;11.82;3.83;;;;;;;13.20;95.28;101391.38;5055048;28;20100;-52
2023/07/13 07:51:53;;;;;;;15.00;3.90;;;;;;;13.25;95.00;101398.84;5054937;28;20104;-51
2023/07/13 07:54:19;;;;;;;11.20;3.80;;;;;;;13.27;95.12;101391.41;5054536;28;20025;-52
2023/07/13 07:56:45;;;;;;;13.23;3.67;;;;;;;13.32;95.00;101399.66;5054842;28;20029;-52
2023/07/13 07:59:11;;;;;;;15.15;4.47;;;;;;;13.32;95.50;101396.13;5054883;28;20020;-49
2023/07/13 08:01:38;;;;;;;9.75;3.72;;;;;;;13.29;95.89;101399.25;5055084;28;20099;-51
2023/07/13 08:04:04;;;;;;;14.50;4.03;;;;;;;13.37;95.41;101401.72;5053116;28;20429;-50
2023/07/13 08:06:33;;;;;;;11.75;3.70;;;;;;;13.38;95.04;101404.22;5034589;28;20091;-52
2023/07/13 08:09:00;;;;;;;10.00;3.75;;;;;;;13.40;94.67;101399.44;5049663;28;20029;-51
2023/07/13 08:11:26;;;;;;;11.30;4.40;;;;;;;13.22;95.71;101388.53;5054573;28;20028;-51
2023/07/13 08:13:52;;;;;;;13.63;3.78;;;;;;;13.30;95.43;101396.34;5053925;28;20086;-52
2023/07/13 08:16:18;;;;;;;12.48;3.65;;;;;;;13.27;95.78;101395.94;5053949;28;20071;-47
2023/07/13 08:18:45;;;;;;;11.00;4.28;;;;;;;13.29;95.87;101402.78;5054497;28;20071;-49
2023/07/13 08:21:11;;;;;;;12.60;3.80;;;;;;;13.35;95.66;101404.63;5054402;28;20079;-51
2023/07/13 08:23:38;;;;;;;12.65;3.63;;;;;;;13.29;96.47;101396.56;5046204;28;20057;-51
2023/07/13 08:26:05;;;;;;;10.70;3.53;;;;;;;13.38;95.34;101393.47;5053976;28;20037;-49
2023/07/13 08:28:32;;;;;;;9.38;3.50;;;;;;;13.45;95.26;101393.44;5053744;28;20110;-49
2023/07/13 08:31:03;;;;;;;6.45;3.35;;;;;;;13.57;94.63;101393.59;5053764;28;20102;-49
2023/07/13 08:33:29;;;;;;;11.25;3.80;;;;;;;13.51;94.57;101399.84;5054338;28;20024;-50
2023/07/13 08:35:56;;;;;;;14.73;4.18;;;;;;;13.55;94.18;101398.34;5053222;28;20364;-51
2023/07/13 08:38:23;;;;;;;8.52;3.50;;;;;;;13.54;94.40;101396.69;5053674;28;20036;-49
2023/07/13 08:40:55;;;;;;;8.30;3.65;;;;;;;13.54;94.71;101394.00;5057757;28;20511;-48
2023/07/13 08:43:41;;;;;;;8.40;3.08;;;;;;;13.53;94.62;101392.38;5074037;28;20031;-50
2023/07/13 08:46:07;;;;;;;;;;;;;;;13.64;93.70;101389.84;5074014;28;20049;-49
2023/07/13 08:48:41;;;;;;;9.00;3.28;;;;;;;13.57;94.07;101390.91;5073951;28;19923;-51
2023/07/13 08:51:38;;;;;;;10.52;3.60;;;;;;;13.55;94.68;101392.97;5071485;28;20028;-51
2023/07/13 08:54:13;;;;;;;12.90;4.43;;;;;;;13.62;94.15;101391.94;5052425;28;20035;-52
2023/07/13 08:56:39;;;;;;;11.18;3.38;;;;;;;13.56;93.73;101389.28;5053693;28;20387;-51
2023/07/13 08:59:14;;;;;;;5.75;3.35;;;;;;;13.51;94.54;101389.91;5053512;28;20086;-51
2023/07/13 09:01:58;;;;;;;;;;;;;;;13.58;93.77;101388.00;5053942;28;20033;-51
2023/07/13 09:04:49;;;;;;;12.02;3.80;;;;;;;13.41;94.40;101392.19;5049371;28;20011;-52
2023/07/13 09:07:28;;;;;;;7.60;3.25;;;;;;;13.29;95.29;101394.72;5034013;28;20029;-52
2023/07/13 09:10:00;;;;;;;13.52;3.75;;;;;;;13.32;95.16;101393.44;5033662;28;20038;-48
2023/07/13 09:12:53;;;;;;;9.07;3.20;;;;;;;13.30;95.58;101385.59;5033323;28;20087;-51
2023/07/13 09:15:37;;;;;;;9.50;3.00;;;;;;;13.45;95.18;101396.13;5033245;28;20037;-51
2023/07/13 09:18:39;;;;;;;8.77;3.33;;;;;;;13.35;95.44;101388.50;5035094;28;20391;-51
2023/07/13 09:21:20;;;;;;;10.55;3.15;;;;;;;13.41;95.38;101394.88;5053180;28;20033;-52
2023/07/13 09:23:48;;;;;;;10.95;4.25;;;;;;;13.51;95.07;101394.44;5051792;28;20060;-51
2023/07/13 09:26:22;;;;;;;12.75;3.72;;;;;;;13.51;94.86;101392.59;5072829;23;20061;-49
2023/07/13 09:29:10;;;;;;;10.90;3.90;;;;;;;13.54;95.08;101397.53;5034815;28;20029;-50
2023/07/13 09:31:45;;;;;;;11.68;3.30;;;;;;;13.63;94.25;101392.75;5052581;28;20093;-48
2023/07/13 09:34:14;;;;;;;9.45;2.90;;;;;;;13.62;93.84;101385.72;5052187;28;20135;-51
2023/07/13 09:36:41;;;;;;;7.68;2.88;;;;;;;13.65;93.26;101396.03;5052448;28;20036;-51
2023/07/13 09:39:30;;;;;;;7.63;2.67;;;;;;;13.63;93.30;101395.44;5052826;28;20685;-48
2023/07/13 09:42:15;;;;;;;7.80;2.70;;;;;;;13.63;93.40;101390.88;5052454;28;20032;-50
2023/07/13 09:44:52;;;;;;;9.00;3.13;;;;;;;13.60;93.43;101394.00;5052509;28;20045;-49
2023/07/13 09:47:31;;;;;;;9.95;3.13;;;;;;;13.49;94.23;101400.03;5052151;28;20173;-47
2023/07/13 09:50:00;;;;;;;9.27;2.92;;;;;;;13.52;94.04;101393.41;5052328;28;20025;-49
2023/07/13 09:52:39;;;;;;;11.38;3.15;;;;;;;13.63;93.27;101396.25;5052548;28;20025;-52
2023/07/13 09:55:22;;;;;;;9.23;3.25;;;;;;;13.62;93.62;101389.25;5051956;28;20052;-50
2023/07/13 09:57:50;;;;;;;8.38;3.63;;;;;;;13.59;94.07;101397.72;5034358;28;20029;-51
2023/07/13 10:00:43;;;;;;;9.50;3.97;;;;;;;13.56;95.13;101383.88;5052105;28;20070;-52
2023/07/13 10:03:37;;;;;;;6.60;3.63;;;;;;;13.62;95.08;101396.47;5049150;28;20403;-50
2023/07/13 10:06:12;;;;;;;11.20;3.60;;;;;;;13.53;95.17;101400.44;5049468;28;20544;-50
2023/07/13 10:08:38;;;;;;;8.27;3.47;;;;;;;13.51;95.14;101399.84;5051982;28;20028;-51
2023/07/13 10:11:29;;;;;;;13.98;4.15;;;;;;;13.53;94.81;101395.06;5052051;28;20029;-51
2023/07/13 10:14:02;;;;;;;6.38;3.33;;;;;;;13.53;95.19;101387.81;5051713;28;20104;-49
2023/07/13 10:16:35;;;;;;;9.20;3.63;;;;;;;13.52;95.09;101379.97;5051847;28;20120;-49
2023/07/13 10:19:15;;;;;;;7.93;3.55;;;;;;;13.46;95.55;101385.16;5051822;28;20058;-51
2023/07/13 10:21:55;;;;;;;7.47;3.70;;;;;;;13.57;95.46;101386.34;5051800;28;20076;-48
2023/07/13 10:24:31;;;;;;;9.10;3.58;;;;;;;13.38;96.37;101382.72;5051454;28;20108;-51
2023/07/13 10:27:07;;;;;;;5.55;3.45;;;;;;;13.50;96.25;101380.19;5051712;28;20147;-49
2023/07/13 10:29:42;;;;;;;;;;;;;;;13.52;95.96;101377.28;5052142;28;20028;-49
2023/07/13 10:32:14;;;;;;;7.85;3.42;;;;;;;13.56;95.83;101378.50;5051441;28;19958;-50
2023/07/13 10:34:44;;;;;;;11.98;3.50;;;;;;;13.40;97.01;101386.00;5051399;28;20056;-49
2023/07/13 10:37:24;;;;;;;11.88;4.82;;;;;;;13.61;96.14;101376.00;5051382;28;20061;-48
2023/07/13 10:39:54;;;;;;;11.52;4.00;;;;;;;13.65;95.74;101382.59;5051709;28;20051;-51
2023/07/13 10:42:35;;;;;;;8.48;3.40;;;;;;;13.67;95.19;101375.97;5051324;28;20025;-52
2023/07/13 10:45:01;;;;;;;10.57;4.18;;;;;;;13.70;94.39;101380.91;5051110;28;20029;-52
2023/07/13 10:47:28;;;;;;;6.47;3.70;;;;;;;13.63;94.98;101369.38;5051217;28;20027;-49
2023/07/13 10:49:57;;;;;;;9.02;4.63;;;;;;;13.53;94.53;101376.22;5051385;28;20017;-51
2023/07/13 10:52:47;;;;;;;7.93;4.13;;;;;;;13.61;94.00;101367.94;5051207;28;20033;-51
2023/07/13 10:55:40;;;;;;;6.80;3.30;;;;;;;13.55;94.59;101379.53;5051090;28;20438;-51
2023/07/13 10:58:20;;;;;;;6.57;2.55;;;;;;;13.55;94.44;101376.84;5051016;28;20136;-51
2023/07/13 11:00:58;;;;;;;8.27;3.10;;;;;;;13.52;95.21;101377.28;5051298;28;20032;-51
2023/07/13 11:03:29;;;;;;;5.32;2.70;;;;;;;13.50;95.31;101382.88;5051252;28;20029;-51
2023/07/13 11:06:16;;;;;;;5.85;3.35;;;;;;;13.48;95.79;101390.31;5051285;28;20107;-51
2023/07/13 11:08:48;;;;;;;7.22;3.38;;;;;;;13.54;95.57;101377.88;5051516;28;20055;-52
2023/07/13 11:11:24;;;;;;;9.80;3.80;;;;;;;13.54;95.61;101381.38;5051269;28;20025;-51
2023/07/13 11:13:50;;;;;;;6.40;3.33;;;;;;;13.57;95.49;101391.75;5051233;28;20025;-51
2023/07/13 11:16:22;;;;;;;7.72;4.95;;;;;;;13.52;95.12;101379.97;5050918;28;20188;-48
2023/07/13 11:18:51;;;;;;;9.80;4.55;;;;;;;13.48;94.79;101390.31;5050855;28;20060;-51
2023/07/13 11:21:22;;;;;;;8.77;5.22;;;;;;;13.50;94.85;101384.75;5051418;28;20036;-51
2023/07/13 11:24:13;;;;;;;9.95;5.40;;;;;;;13.46;95.21;101385.16;5049694;28;20100;-49
2023/07/13 11:26:45;;;;;;;12.88;5.10;;;;;;;13.30;96.13;101384.78;5049315;28;20037;-51
2023/07/13 11:29:18;;;;;;;8.32;4.60;;;;;;;13.29;96.65;101388.50;5050897;28;20021;-51
2023/07/13 11:31:53;;;;;;;10.07;4.68;;;;;;;13.44;95.59;101386.41;5050746;28;20025;-51